Saint Louis, Missouri
Current Conditions -  °F | °C
As of 3:53 AM on Wednesday 26 Nov 2014 (Local Time) from KCPS Reporting Station
Clear Clear  
Wind Chill: 22°   Ceiling: Unl
Heat Index: 28°   Visibility: 8mi
Dew Point: 25°   Wind: 6mph
Humidity: 88%   Direction: 140°SE
Pressure: 30.11"   Gusts: NA
Location:  38.63°N, 90.24°W
Report Text: KCPS 260953Z AUTO 14005KT 8SM CLR M02/M04 A3011 RMK AO2 SLP198 T10221039 TSNO
Loading
Personal Weather Stations






























Interactive Weather Map New forecast layout! Learn more

10-Day Weather Forecast

Advertisements
Track Severe Weather on mobile